Time;durP1;ratioP1;P1;durP2;ratioP2;P2;SDS_P1;SDS_P2;PMS_P1;PMS_P2;Temp;Humidity;BMP_temperature;BMP_pressure;BME280_temperature;BME280_humidity;BME280_pressure;Samples;Min_cycle;Max_cycle;Signal;HPM_P1;HPM_P2
2023/04/05 00:00:53;;;;;;;7.23;4.23;;;;;;;;;;4970954;28;20278;-65
2023/04/05 00:03:18;;;;;;;7.03;4.60;;;;;;;;;;4971082;28;20232;-65
2023/04/05 00:05:44;;;;;;;8.80;4.80;;;;;;;;;;4954442;28;20218;-65
2023/04/05 00:08:12;;;;;;;8.70;4.70;;;;;;;;;;4970582;28;20304;-65
2023/04/05 00:10:37;;;;;;;11.47;5.20;;;;;;;;;;4971589;28;20235;-65
2023/04/05 00:13:03;;;;;;;9.23;4.50;;;;;;;;;;4971516;28;20671;-65
2023/04/05 00:15:28;;;;;;;8.50;4.50;;;;;;;;;;4971430;28;20209;-65
2023/04/05 00:17:53;;;;;;;7.37;4.70;;;;;;;;;;4970994;28;20210;-65
2023/04/05 00:20:19;;;;;;;7.50;4.63;;;;;;;;;;4953841;28;20224;-65
2023/04/05 00:22:45;;;;;;;7.63;4.77;;;;;;;;;;4970647;28;20673;-65
2023/04/05 00:25:10;;;;;;;7.80;4.80;;;;;;;;;;4969023;28;20202;-65
2023/04/05 00:27:35;;;;;;;9.93;4.63;;;;;;;;;;4970676;28;20296;-65
2023/04/05 00:30:01;;;;;;;11.27;4.60;;;;;;;;;;4965626;28;20218;-64
2023/04/05 00:32:26;;;;;;;8.90;4.67;;;;;;;;;;4951383;29;20234;-65
2023/04/05 00:34:51;;;;;;;8.52;4.43;;;;;;;;;;4951473;29;20210;-65
2023/04/05 00:37:17;;;;;;;11.17;4.23;;;;;;;;;;4951100;29;20222;-65
2023/04/05 00:39:42;;;;;;;9.17;5.03;;;;;;;;;;4952054;29;20693;-65
2023/04/05 00:42:08;;;;;;;10.53;5.20;;;;;;;;;;4951112;29;20205;-65
2023/04/05 00:44:33;;;;;;;8.47;4.93;;;;;;;;;;4950993;28;20616;-65
2023/04/05 00:47:03;;;;;;;9.37;4.97;;;;;;;;;;4955387;28;20197;-65
2023/04/05 00:49:29;;;;;;;8.77;4.87;;;;;;;;;;4960208;28;20292;-65
2023/04/05 00:51:55;;;;;;;7.40;4.57;;;;;;;;;;4934261;29;20210;-65
2023/04/05 00:54:20;;;;;;;8.90;4.87;;;;;;;;;;4934260;29;20228;-65
2023/04/05 00:56:46;;;;;;;10.93;5.07;;;;;;;;;;4933833;29;20222;-65
2023/04/05 00:59:11;;;;;;;7.53;4.53;;;;;;;;;;4933852;29;20228;-65
2023/04/05 01:01:39;;;;;;;10.30;5.70;;;;;;;;;;4951695;29;20214;-65
2023/04/05 01:04:05;;;;;;;9.07;5.27;;;;;;;;;;4933745;29;20217;-65
2023/04/05 01:06:31;;;;;;;12.17;5.47;;;;;;;;;;4951077;29;20210;-65
2023/04/05 01:09:04;;;;;;;11.00;5.60;;;;;;;;;;4951306;29;20337;-65
2023/04/05 01:11:31;;;;;;;10.63;5.63;;;;;;;;;;4950541;29;20708;-65
2023/04/05 01:13:56;;;;;;;8.77;5.10;;;;;;;;;;4951269;29;20214;-65
2023/04/05 01:16:22;;;;;;;10.20;5.60;;;;;;;;;;4951022;29;20544;-65
2023/04/05 01:18:47;;;;;;;11.07;5.10;;;;;;;;;;4950828;29;20221;-65
2023/04/05 01:21:22;;;;;;;8.30;5.40;;;;;;;;;;4950718;29;20261;-65
2023/04/05 01:23:53;;;;;;;8.23;5.43;;;;;;;;;;4933930;29;20225;-65
2023/04/05 01:26:25;;;;;;;10.17;5.63;;;;;;;;;;4933381;29;20688;-65
2023/04/05 01:29:02;;;;;;;11.13;6.03;;;;;;;;;;4951281;29;20250;-66
2023/04/05 01:31:40;;;;;;;11.07;5.77;;;;;;;;;;4946447;29;20234;-65
2023/04/05 01:34:08;;;;;;;13.13;5.80;;;;;;;;;;4949427;28;20220;-65
2023/04/05 01:36:40;;;;;;;9.57;5.67;;;;;;;;;;4951266;28;20211;-65
2023/04/05 01:39:05;;;;;;;10.60;5.53;;;;;;;;;;4949109;28;20218;-64
2023/04/05 01:41:31;;;;;;;10.07;5.37;;;;;;;;;;4930308;28;20676;-65
2023/04/05 01:43:56;;;;;;;10.63;5.77;;;;;;;;;;4914172;28;20344;-65
2023/04/05 01:46:22;;;;;;;10.77;6.10;;;;;;;;;;4917541;28;20256;-65
2023/04/05 01:48:47;;;;;;;9.13;5.33;;;;;;;;;;4922792;29;20227;-65
2023/04/05 01:51:12;;;;;;;10.77;5.83;;;;;;;;;;4921149;28;20321;-65
2023/04/05 01:53:37;;;;;;;9.30;5.40;;;;;;;;;;4922577;29;20885;-65
2023/04/05 01:56:03;;;;;;;11.00;5.55;;;;;;;;;;4925470;29;20366;-65
2023/04/05 01:58:28;;;;;;;11.73;5.63;;;;;;;;;;4926460;28;20619;-65
2023/04/05 02:00:54;;;;;;;10.27;5.23;;;;;;;;;;4926213;29;20215;-65
2023/04/05 02:03:20;;;;;;;9.20;5.60;;;;;;;;;;4919319;29;20738;-65
2023/04/05 02:05:45;;;;;;;10.60;5.97;;;;;;;;;;4919036;29;20211;-65
2023/04/05 02:08:10;;;;;;;9.73;5.43;;;;;;;;;;4918380;29;20692;-65
2023/04/05 02:10:36;;;;;;;10.27;5.77;;;;;;;;;;4925304;29;20230;-65
2023/04/05 02:13:01;;;;;;;10.27;5.93;;;;;;;;;;4925351;29;20219;-64
2023/04/05 02:15:26;;;;;;;11.73;6.07;;;;;;;;;;4925922;28;20215;-65
2023/04/05 02:17:52;;;;;;;10.77;5.87;;;;;;;;;;4926473;28;20218;-65
2023/04/05 02:20:18;;;;;;;14.20;5.13;;;;;;;;;;4925461;29;20215;-65
2023/04/05 02:22:44;;;;;;;9.53;6.00;;;;;;;;;;4944337;28;20250;-65
2023/04/05 02:25:09;;;;;;;12.37;6.10;;;;;;;;;;4932212;28;20524;-65
2023/04/05 02:27:35;;;;;;;8.97;5.50;;;;;;;;;;4917950;29;20219;-65
2023/04/05 02:30:00;;;;;;;11.60;5.97;;;;;;;;;;4918984;29;20806;-65
2023/04/05 02:32:25;;;;;;;11.57;6.03;;;;;;;;;;4933458;28;20632;-65
2023/04/05 02:34:51;;;;;;;10.30;5.80;;;;;;;;;;4944585;28;20223;-65
2023/04/05 02:37:17;;;;;;;9.47;5.63;;;;;;;;;;4943915;28;20219;-65
2023/04/05 02:39:43;;;;;;;10.70;5.47;;;;;;;;;;4944934;28;20704;-65
2023/04/05 02:42:08;;;;;;;8.73;5.90;;;;;;;;;;4943716;28;20222;-65
2023/04/05 02:44:33;;;;;;;10.00;6.03;;;;;;;;;;4944537;28;20327;-65
2023/04/05 02:46:58;;;;;;;10.90;5.70;;;;;;;;;;4942235;28;20206;-65
2023/04/05 02:49:24;;;;;;;10.37;6.30;;;;;;;;;;4936807;28;20229;-65
2023/04/05 02:51:49;;;;;;;10.20;5.97;;;;;;;;;;4937203;28;20720;-65
2023/04/05 02:54:15;;;;;;;14.67;5.80;;;;;;;;;;4957058;28;20810;-65
2023/04/05 02:56:41;;;;;;;10.53;5.60;;;;;;;;;;4962949;28;20221;-65
2023/04/05 02:59:06;;;;;;;11.60;6.20;;;;;;;;;;4962299;28;20805;-65
2023/04/05 03:01:31;;;;;;;10.53;6.33;;;;;;;;;;4963477;28;20224;-65
2023/04/05 03:03:57;;;;;;;12.00;6.20;;;;;;;;;;4962916;28;20245;-65
2023/04/05 03:06:22;;;;;;;8.97;5.97;;;;;;;;;;4964902;28;20240;-65
2023/04/05 03:08:48;;;;;;;11.07;6.00;;;;;;;;;;4953035;29;20228;-65
2023/04/05 03:11:13;;;;;;;10.13;5.67;;;;;;;;;;4952811;29;20246;-65
2023/04/05 03:13:38;;;;;;;9.17;5.70;;;;;;;;;;4952977;29;20307;-65
2023/04/05 03:16:04;;;;;;;10.43;6.03;;;;;;;;;;4953143;29;20250;-64
2023/04/05 03:18:29;;;;;;;8.97;5.77;;;;;;;;;;4952759;29;20588;-65
2023/04/05 03:20:55;;;;;;;10.77;5.97;;;;;;;;;;4953231;29;20681;-65
2023/04/05 03:23:25;;;;;;;9.83;6.40;;;;;;;;;;4952094;29;20269;-65
2023/04/05 03:25:52;;;;;;;9.93;5.93;;;;;;;;;;4966747;28;20229;-65
2023/04/05 03:28:17;;;;;;;9.23;6.10;;;;;;;;;;4971819;28;20293;-65
2023/04/05 03:30:43;;;;;;;12.43;6.27;;;;;;;;;;4960966;28;20720;-65
2023/04/05 03:33:08;;;;;;;10.97;6.27;;;;;;;;;;4952163;29;20230;-64
2023/04/05 03:35:33;;;;;;;10.93;6.33;;;;;;;;;;4952965;29;20222;-65
2023/04/05 03:37:58;;;;;;;9.03;6.03;;;;;;;;;;4946431;28;20285;-65
2023/04/05 03:40:24;;;;;;;12.27;6.30;;;;;;;;;;4942770;28;20214;-65
2023/04/05 03:42:49;;;;;;;9.87;6.33;;;;;;;;;;4957189;28;20226;-65
2023/04/05 03:45:14;;;;;;;10.73;6.10;;;;;;;;;;4954155;28;20304;-65
2023/04/05 03:47:40;;;;;;;10.13;6.57;;;;;;;;;;4946298;28;20796;-65
2023/04/05 03:50:05;;;;;;;11.00;5.80;;;;;;;;;;4923860;28;20222;-65
2023/04/05 03:52:31;;;;;;;11.63;6.47;;;;;;;;;;4925494;28;20281;-65
2023/04/05 03:54:56;;;;;;;11.27;6.27;;;;;;;;;;4943037;28;20234;-65
2023/04/05 03:57:21;;;;;;;12.37;6.70;;;;;;;;;;4942875;28;20645;-65
2023/04/05 03:59:46;;;;;;;10.87;6.27;;;;;;;;;;4961339;28;20214;-65
2023/04/05 04:02:12;;;;;;;11.80;6.40;;;;;;;;;;4961623;28;20276;-64
2023/04/05 04:04:37;;;;;;;11.30;6.50;;;;;;;;;;4958982;28;20225;-65
2023/04/05 04:07:03;;;;;;;10.37;6.30;;;;;;;;;;4945913;28;20226;-65
2023/04/05 04:09:28;;;;;;;10.13;6.00;;;;;;;;;;4935401;28;20239;-65
2023/04/05 04:11:54;;;;;;;9.87;5.97;;;;;;;;;;4938749;28;20373;-65
2023/04/05 04:14:19;;;;;;;12.13;6.30;;;;;;;;;;4942264;28;20219;-65
2023/04/05 04:16:44;;;;;;;9.80;5.83;;;;;;;;;;4942881;28;20226;-65
2023/04/05 04:19:10;;;;;;;11.77;6.77;;;;;;;;;;4942473;28;20786;-65
2023/04/05 04:21:38;;;;;;;10.90;6.63;;;;;;;;;;4942165;28;20222;-65
2023/04/05 04:24:03;;;;;;;9.90;6.27;;;;;;;;;;4942158;28;20304;-64
2023/04/05 04:26:29;;;;;;;13.60;6.40;;;;;;;;;;4941753;28;20227;-66
2023/04/05 04:28:54;;;;;;;11.90;6.40;;;;;;;;;;4934833;28;20709;-65
2023/04/05 04:31:21;;;;;;;10.57;6.30;;;;;;;;;;4934824;28;20245;-65
2023/04/05 04:33:54;;;;;;;11.77;6.37;;;;;;;;;;4954476;28;20232;-65
2023/04/05 04:36:33;;;;;;;12.47;6.27;;;;;;;;;;4961021;28;20313;-65
2023/04/05 04:38:59;;;;;;;10.97;6.10;;;;;;;;;;4961477;28;20213;-65
2023/04/05 04:41:25;;;;;;;13.30;6.40;;;;;;;;;;4960551;28;20226;-65
2023/04/05 04:43:53;;;;;;;12.47;6.77;;;;;;;;;;4961388;28;20217;-65
2023/04/05 04:46:19;;;;;;;11.87;6.20;;;;;;;;;;4961152;28;20760;-65
2023/04/05 04:48:45;;;;;;;9.03;6.10;;;;;;;;;;4943238;28;20218;-65
2023/04/05 04:51:10;;;;;;;12.40;6.47;;;;;;;;;;4934806;28;20301;-65
2023/04/05 04:53:36;;;;;;;10.40;6.27;;;;;;;;;;4934322;28;20301;-65
2023/04/05 04:56:05;;;;;;;11.80;6.20;;;;;;;;;;4934959;28;20422;-64
2023/04/05 04:58:30;;;;;;;11.63;6.60;;;;;;;;;;4960757;28;20700;-65
2023/04/05 05:00:55;;;;;;;12.07;6.60;;;;;;;;;;4961545;28;20221;-65
2023/04/05 05:03:21;;;;;;;10.33;6.33;;;;;;;;;;4960643;28;20744;-65
2023/04/05 05:05:47;;;;;;;12.47;6.50;;;;;;;;;;4967805;28;20214;-65
2023/04/05 05:08:13;;;;;;;12.50;6.80;;;;;;;;;;4970106;28;20558;-63
2023/04/05 05:10:38;;;;;;;11.80;7.47;;;;;;;;;;4969431;28;20506;-63
2023/04/05 05:13:03;;;;;;;12.70;7.87;;;;;;;;;;4969352;28;20410;-63
2023/04/05 05:15:29;;;;;;;11.23;6.60;;;;;;;;;;4970686;28;20216;-63
2023/04/05 05:17:54;;;;;;;12.03;7.13;;;;;;;;;;4963803;28;20207;-63
2023/04/05 05:20:19;;;;;;;11.40;6.97;;;;;;;;;;4960316;28;20210;-63
2023/04/05 05:22:45;;;;;;;11.97;6.73;;;;;;;;;;4961037;28;20245;-63
2023/04/05 05:25:11;;;;;;;13.17;7.27;;;;;;;;;;4959134;28;20203;-63
2023/04/05 05:27:36;;;;;;;10.93;6.60;;;;;;;;;;4962368;28;20246;-62
2023/04/05 05:30:01;;;;;;;10.93;6.87;;;;;;;;;;4960703;28;20261;-63
2023/04/05 05:32:27;;;;;;;12.97;7.00;;;;;;;;;;4965777;28;20240;-63
2023/04/05 05:34:52;;;;;;;12.40;7.00;;;;;;;;;;4963480;28;20213;-63
2023/04/05 05:37:17;;;;;;;10.63;6.70;;;;;;;;;;4963020;28;20222;-63
2023/04/05 05:39:44;;;;;;;10.40;6.33;;;;;;;;;;4962338;28;20587;-62
2023/04/05 05:42:09;;;;;;;10.90;6.53;;;;;;;;;;4964450;28;20202;-62
2023/04/05 05:44:35;;;;;;;10.90;5.83;;;;;;;;;;4961461;28;20341;-63
2023/04/05 05:47:00;;;;;;;9.87;6.03;;;;;;;;;;4963076;28;20221;-63
2023/04/05 05:49:25;;;;;;;11.18;6.50;;;;;;;;;;4962514;28;20230;-63
2023/04/05 05:51:52;;;;;;;10.27;6.13;;;;;;;;;;4964857;28;20727;-63
2023/04/05 05:54:17;;;;;;;10.67;6.27;;;;;;;;;;4962961;28;20217;-63
2023/04/05 05:56:43;;;;;;;12.02;6.82;;;;;;;;;;4965102;28;20271;-63
2023/04/05 05:59:08;;;;;;;11.53;7.23;;;;;;;;;;4961114;28;20905;-63
2023/04/05 06:01:37;;;;;;;9.45;6.72;;;;;;;;;;4964819;28;20349;-63
2023/04/05 06:04:02;;;;;;;12.35;6.68;;;;;;;;;;4962504;28;20413;-63
2023/04/05 06:06:28;;;;;;;10.13;6.78;;;;;;;;;;4961644;28;20248;-64
2023/04/05 06:08:54;;;;;;;10.10;6.38;;;;;;;;;;4960433;28;20249;-63
2023/04/05 06:11:20;;;;;;;13.18;6.75;;;;;;;;;;4963933;28;20614;-64
2023/04/05 06:13:45;;;;;;;9.27;6.45;;;;;;;;;;4962835;28;20261;-63
2023/04/05 06:16:11;;;;;;;10.27;6.70;;;;;;;;;;4962314;28;20206;-63
2023/04/05 06:18:36;;;;;;;10.73;6.03;;;;;;;;;;4962408;28;20214;-63
2023/04/05 06:21:01;;;;;;;8.30;5.93;;;;;;;;;;4963407;28;20729;-64
2023/04/05 06:23:26;;;;;;;10.57;6.45;;;;;;;;;;4962984;28;20218;-64
2023/04/05 06:25:52;;;;;;;9.90;6.85;;;;;;;;;;4963221;28;20198;-64
2023/04/05 06:28:17;;;;;;;9.90;5.90;;;;;;;;;;4968539;28;20230;-63
2023/04/05 06:30:43;;;;;;;9.07;6.50;;;;;;;;;;4962713;28;20297;-63
2023/04/05 06:33:09;;;;;;;9.57;6.50;;;;;;;;;;4967497;28;20230;-63
2023/04/05 06:35:34;;;;;;;12.68;6.80;;;;;;;;;;4967266;28;20568;-63
2023/04/05 06:37:59;;;;;;;8.93;7.00;;;;;;;;;;4956737;28;20309;-63
2023/04/05 06:40:25;;;;;;;9.93;6.40;;;;;;;;;;4952564;28;20210;-62
2023/04/05 06:42:50;;;;;;;9.02;6.57;;;;;;;;;;4952774;29;20768;-63
2023/04/05 06:45:17;;;;;;;10.02;6.32;;;;;;;;;;4953321;29;20620;-63
2023/04/05 06:47:43;;;;;;;11.27;7.20;;;;;;;;;;4963073;28;20388;-63
2023/04/05 06:50:08;;;;;;;9.65;6.40;;;;;;;;;;4957306;28;20656;-63
2023/04/05 06:52:34;;;;;;;9.93;5.85;;;;;;;;;;4954127;29;20222;-63
2023/04/05 06:54:59;;;;;;;9.93;5.95;;;;;;;;;;4953231;29;20203;-63
2023/04/05 06:57:24;;;;;;;11.15;6.93;;;;;;;;;;4952998;29;20298;-63
2023/04/05 06:59:51;;;;;;;11.48;6.50;;;;;;;;;;4953842;29;20226;-63
2023/04/05 07:02:16;;;;;;;12.32;6.53;;;;;;;;;;4952721;29;20289;-63
2023/04/05 07:04:42;;;;;;;12.48;6.45;;;;;;;;;;4953531;29;20674;-63
2023/04/05 07:07:07;;;;;;;11.65;6.63;;;;;;;;;;4953249;29;20218;-63
2023/04/05 07:09:33;;;;;;;12.73;6.50;;;;;;;;;;4953101;29;20218;-63
2023/04/05 07:11:58;;;;;;;11.35;6.07;;;;;;;;;;4953184;29;20708;-63
2023/04/05 07:14:23;;;;;;;10.75;6.65;;;;;;;;;;4953017;29;20210;-63
2023/04/05 07:16:51;;;;;;;9.43;5.78;;;;;;;;;;4952777;29;20674;-63
2023/04/05 07:19:16;;;;;;;9.52;6.15;;;;;;;;;;4935576;29;20273;-63
2023/04/05 07:21:41;;;;;;;11.88;6.90;;;;;;;;;;4953380;29;20638;-64
2023/04/05 07:24:07;;;;;;;8.70;6.18;;;;;;;;;;4952275;29;20226;-63
2023/04/05 07:26:34;;;;;;;10.45;6.45;;;;;;;;;;4953185;29;20225;-64
2023/04/05 07:29:00;;;;;;;9.38;6.57;;;;;;;;;;4953038;29;20583;-64
2023/04/05 07:31:26;;;;;;;10.65;6.25;;;;;;;;;;4968363;28;20221;-63
2023/04/05 07:33:51;;;;;;;9.55;6.57;;;;;;;;;;4972529;28;20221;-64
2023/04/05 07:36:16;;;;;;;12.07;6.88;;;;;;;;;;4971844;28;20682;-63
2023/04/05 07:38:42;;;;;;;9.23;6.28;;;;;;;;;;4971678;28;20210;-64
2023/04/05 07:41:07;;;;;;;11.38;6.70;;;;;;;;;;4971658;28;20276;-64
2023/04/05 07:43:32;;;;;;;10.25;6.03;;;;;;;;;;4972127;28;20264;-64
2023/04/05 07:46:03;;;;;;;10.55;6.70;;;;;;;;;;4971948;28;20217;-64
2023/04/05 07:48:29;;;;;;;10.20;6.80;;;;;;;;;;4957786;28;20242;-64
2023/04/05 07:50:54;;;;;;;10.88;6.80;;;;;;;;;;4954265;28;20669;-64
2023/04/05 07:53:20;;;;;;;11.75;6.53;;;;;;;;;;4970991;28;20221;-64
2023/04/05 07:55:45;;;;;;;8.80;6.13;;;;;;;;;;4971913;28;20218;-64
2023/04/05 07:58:10;;;;;;;15.43;6.65;;;;;;;;;;4970758;28;20225;-64
2023/04/05 08:00:36;;;;;;;9.85;6.72;;;;;;;;;;4971701;28;20580;-64
2023/04/05 08:03:03;;;;;;;12.98;6.65;;;;;;;;;;4971519;28;20232;-64
2023/04/05 08:05:28;;;;;;;10.25;7.00;;;;;;;;;;4971245;28;20744;-64
2023/04/05 08:07:54;;;;;;;8.60;6.18;;;;;;;;;;4971709;28;20297;-64
2023/04/05 08:10:20;;;;;;;13.68;11.05;;;;;;;;;;4971342;28;20576;-64
2023/04/05 08:12:45;;;;;;;13.13;10.02;;;;;;;;;;4971206;28;20268;-64
2023/04/05 08:15:10;;;;;;;10.40;6.30;;;;;;;;;;4971029;28;20222;-64
2023/04/05 08:17:35;;;;;;;8.70;5.85;;;;;;;;;;4958471;28;20221;-64
2023/04/05 08:20:01;;;;;;;8.98;5.80;;;;;;;;;;4951480;28;20630;-64
2023/04/05 08:22:27;;;;;;;9.57;6.18;;;;;;;;;;4952091;28;20221;-64
2023/04/05 08:24:53;;;;;;;8.75;5.90;;;;;;;;;;4952269;28;20218;-64
2023/04/05 08:27:18;;;;;;;10.10;6.50;;;;;;;;;;4950839;28;20250;-64
2023/04/05 08:29:43;;;;;;;9.40;6.10;;;;;;;;;;4951970;28;20254;-64
2023/04/05 08:32:09;;;;;;;9.70;6.38;;;;;;;;;;4951285;29;20706;-64
2023/04/05 08:34:34;;;;;;;9.02;5.90;;;;;;;;;;4951422;29;20226;-64
2023/04/05 08:36:59;;;;;;;9.25;6.88;;;;;;;;;;4952019;29;20301;-64
2023/04/05 08:39:25;;;;;;;8.98;6.15;;;;;;;;;;4951487;29;20219;-64
2023/04/05 08:42:00;;;;;;;10.55;6.13;;;;;;;;;;4950959;29;20218;-64
2023/04/05 08:44:25;;;;;;;12.43;6.00;;;;;;;;;;4951555;29;20225;-64
2023/04/05 08:46:51;;;;;;;8.85;5.50;;;;;;;;;;4953964;28;20512;-64
2023/04/05 08:49:16;;;;;;;9.05;5.88;;;;;;;;;;4944936;29;20223;-64
2023/04/05 08:51:41;;;;;;;10.23;5.57;;;;;;;;;;4951769;29;20222;-64
2023/04/05 08:54:06;;;;;;;7.80;5.45;;;;;;;;;;4950718;29;20241;-64
2023/04/05 08:56:32;;;;;;;8.48;5.55;;;;;;;;;;4951559;29;20214;-64
2023/04/05 08:58:57;;;;;;;10.60;6.13;;;;;;;;;;4951570;29;20234;-64
2023/04/05 09:01:23;;;;;;;12.75;6.70;;;;;;;;;;4950390;29;20216;-64
2023/04/05 09:03:48;;;;;;;9.50;5.95;;;;;;;;;;4933948;29;20222;-64
2023/04/05 09:06:14;;;;;;;10.13;6.28;;;;;;;;;;4950961;29;20575;-64
2023/04/05 09:08:39;;;;;;;9.70;5.90;;;;;;;;;;4934074;29;20230;-64
2023/04/05 09:11:05;;;;;;;10.23;6.68;;;;;;;;;;4951145;29;20213;-64
2023/04/05 09:13:30;;;;;;;10.35;7.10;;;;;;;;;;4934249;29;20269;-64
2023/04/05 09:15:56;;;;;;;10.05;6.88;;;;;;;;;;4950987;29;20273;-64
2023/04/05 09:18:21;;;;;;;11.13;6.50;;;;;;;;;;4950629;29;20269;-64
2023/04/05 09:20:46;;;;;;;10.52;6.07;;;;;;;;;;4951565;29;20732;-64
2023/04/05 09:23:11;;;;;;;11.15;6.45;;;;;;;;;;4950373;29;20273;-64
2023/04/05 09:25:38;;;;;;;9.82;5.78;;;;;;;;;;4951412;29;20210;-64
2023/04/05 09:28:04;;;;;;;10.30;6.32;;;;;;;;;;4950622;29;20277;-64
2023/04/05 09:30:29;;;;;;;8.15;5.57;;;;;;;;;;4959430;28;20617;-64
2023/04/05 09:32:55;;;;;;;10.25;5.85;;;;;;;;;;4970391;28;20230;-64
2023/04/05 09:35:21;;;;;;;8.63;6.20;;;;;;;;;;4970268;28;20684;-64
2023/04/05 09:37:49;;;;;;;9.40;5.90;;;;;;;;;;4969920;28;20214;-64
2023/04/05 09:40:14;;;;;;;9.65;5.53;;;;;;;;;;4970058;28;20257;-64
2023/04/05 09:42:46;;;;;;;8.38;5.25;;;;;;;;;;4970414;28;20736;-64
2023/04/05 09:45:12;;;;;;;8.57;5.38;;;;;;;;;;4969071;28;20229;-64
2023/04/05 09:47:38;;;;;;;8.63;5.07;;;;;;;;;;4961457;28;20221;-64
2023/04/05 09:50:10;;;;;;;8.10;5.30;;;;;;;;;;4965146;28;20222;-64
2023/04/05 09:52:35;;;;;;;8.10;5.07;;;;;;;;;;4970135;28;20221;-64
2023/04/05 09:55:02;;;;;;;8.50;4.97;;;;;;;;;;4970158;28;20221;-64
2023/04/05 09:57:29;;;;;;;7.90;5.10;;;;;;;;;;4969815;28;20221;-64
2023/04/05 09:59:54;;;;;;;8.35;4.68;;;;;;;;;;4969974;28;20579;-64
2023/04/05 10:02:21;;;;;;;8.15;4.90;;;;;;;;;;4969821;28;20225;-64
2023/04/05 10:04:47;;;;;;;9.48;5.00;;;;;;;;;;4952796;28;20645;-64
2023/04/05 10:07:13;;;;;;;8.70;5.05;;;;;;;;;;4969510;28;20223;-64
2023/04/05 10:09:39;;;;;;;8.80;4.60;;;;;;;;;;4970335;28;20240;-64
2023/04/05 10:12:04;;;;;;;9.00;4.80;;;;;;;;;;4951983;28;20265;-64
2023/04/05 10:14:30;;;;;;;7.78;5.22;;;;;;;;;;4952817;28;20225;-64
2023/04/05 10:17:02;;;;;;;7.03;4.90;;;;;;;;;;4965190;28;20207;-64
2023/04/05 10:19:32;;;;;;;9.38;4.63;;;;;;;;;;4953780;28;20222;-64
2023/04/05 10:21:58;;;;;;;7.05;4.70;;;;;;;;;;4954707;28;20281;-64
2023/04/05 10:24:23;;;;;;;8.45;4.72;;;;;;;;;;4953997;28;20241;-64
2023/04/05 10:26:59;;;;;;;8.40;5.00;;;;;;;;;;4953628;28;20238;-64
2023/04/05 10:29:32;;;;;;;8.25;4.97;;;;;;;;;;4953536;28;20681;-64
2023/04/05 10:31:58;;;;;;;8.45;5.10;;;;;;;;;;4954140;29;20234;-64
2023/04/05 10:34:31;;;;;;;9.13;5.28;;;;;;;;;;4953048;29;20229;-64
2023/04/05 10:36:58;;;;;;;9.38;5.30;;;;;;;;;;4937198;29;20280;-64
2023/04/05 10:39:33;;;;;;;8.80;5.25;;;;;;;;;;4935952;29;20219;-64
2023/04/05 10:42:00;;;;;;;7.97;5.00;;;;;;;;;;4954030;29;20218;-64
2023/04/05 10:44:25;;;;;;;7.10;4.95;;;;;;;;;;4953645;29;20242;-64
2023/04/05 10:46:51;;;;;;;7.35;4.35;;;;;;;;;;4938637;28;20620;-64
2023/04/05 10:49:27;;;;;;;8.13;4.88;;;;;;;;;;4946737;29;20210;-64
2023/04/05 10:51:52;;;;;;;11.32;4.88;;;;;;;;;;4953903;29;20217;-64
2023/04/05 10:54:18;;;;;;;7.38;5.10;;;;;;;;;;4951641;29;20582;-64
2023/04/05 10:56:43;;;;;;;9.73;4.93;;;;;;;;;;4953894;29;20499;-64
2023/04/05 10:59:09;;;;;;;6.75;4.50;;;;;;;;;;4953316;29;20540;-64
2023/04/05 11:01:35;;;;;;;8.27;4.85;;;;;;;;;;4935864;29;20637;-64
2023/04/05 11:04:09;;;;;;;7.63;4.68;;;;;;;;;;4953444;29;20246;-64
2023/04/05 11:06:35;;;;;;;7.05;4.90;;;;;;;;;;4953667;29;20213;-64
2023/04/05 11:09:08;;;;;;;10.52;5.07;;;;;;;;;;4952452;29;20230;-64
2023/04/05 11:11:37;;;;;;;7.80;4.90;;;;;;;;;;4953803;29;20246;-64
2023/04/05 11:14:03;;;;;;;9.23;5.10;;;;;;;;;;4952991;29;20294;-64
2023/04/05 11:16:40;;;;;;;10.05;5.10;;;;;;;;;;4935253;29;20301;-64
2023/04/05 11:19:06;;;;;;;8.48;4.82;;;;;;;;;;4952705;29;20222;-64
2023/04/05 11:21:31;;;;;;;7.80;4.72;;;;;;;;;;4953646;29;20219;-64
2023/04/05 11:24:00;;;;;;;8.35;5.10;;;;;;;;;;4952566;29;20292;-64
2023/04/05 11:26:32;;;;;;;8.00;4.80;;;;;;;;;;4953075;29;20591;-64
2023/04/05 11:28:57;;;;;;;7.43;4.50;;;;;;;;;;4951918;29;20628;-64
2023/04/05 11:31:25;;;;;;;7.60;4.82;;;;;;;;;;4965177;28;20219;-64
2023/04/05 11:33:55;;;;;;;6.35;3.90;;;;;;;;;;4953040;28;20686;-64
2023/04/05 11:36:37;;;;;;;7.40;4.65;;;;;;;;;;4952432;28;21417;-64
2023/04/05 11:39:21;;;;;;;6.53;4.53;;;;;;;;;;4952680;28;20281;-64
2023/04/05 11:41:47;;;;;;;7.88;4.05;;;;;;;;;;4953287;28;20304;-64
2023/04/05 11:44:12;;;;;;;7.75;4.97;;;;;;;;;;4950542;28;20677;-64
2023/04/05 11:46:38;;;;;;;8.80;4.68;;;;;;;;;;4952221;28;20225;-63
2023/04/05 11:49:03;;;;;;;9.57;4.72;;;;;;;;;;4939456;28;20729;-63
2023/04/05 11:51:28;;;;;;;7.47;5.00;;;;;;;;;;4952414;28;20245;-63
2023/04/05 11:53:54;;;;;;;7.43;4.80;;;;;;;;;;4951520;29;20215;-63
2023/04/05 11:56:20;;;;;;;10.27;5.03;;;;;;;;;;4952582;28;20219;-64
2023/04/05 11:58:45;;;;;;;8.10;4.78;;;;;;;;;;4952190;28;20305;-64
2023/04/05 12:01:10;;;;;;;7.82;4.85;;;;;;;;;;4951000;28;20214;-64
2023/04/05 12:03:35;;;;;;;7.07;4.70;;;;;;;;;;4952755;28;20454;-64
2023/04/05 12:06:02;;;;;;;8.32;5.70;;;;;;;;;;4951802;28;20211;-64
2023/04/05 12:08:36;;;;;;;7.78;5.38;;;;;;;;;;4952527;28;20556;-64
2023/04/05 12:11:01;;;;;;;7.38;4.82;;;;;;;;;;4951766;28;20312;-64
2023/04/05 12:13:28;;;;;;;6.30;4.68;;;;;;;;;;4952481;28;20298;-64
2023/04/05 12:15:53;;;;;;;8.48;4.82;;;;;;;;;;4952746;28;20597;-64
2023/04/05 12:18:19;;;;;;;7.80;4.90;;;;;;;;;;4932715;28;20219;-64
2023/04/05 12:20:44;;;;;;;9.93;5.20;;;;;;;;;;4932888;28;20227;-64
2023/04/05 12:23:10;;;;;;;8.20;4.88;;;;;;;;;;4932970;28;20258;-64
2023/04/05 12:25:37;;;;;;;8.68;5.07;;;;;;;;;;4931435;29;20270;-64
2023/04/05 12:28:03;;;;;;;8.85;5.18;;;;;;;;;;4931290;28;20212;-64
2023/04/05 12:30:35;;;;;;;6.28;4.30;;;;;;;;;;4933035;28;20231;-63
2023/04/05 12:33:01;;;;;;;8.38;4.53;;;;;;;;;;4931639;29;20226;-63
2023/04/05 12:35:31;;;;;;;8.35;4.88;;;;;;;;;;4931444;29;20214;-63
2023/04/05 12:37:57;;;;;;;7.82;5.10;;;;;;;;;;4932998;29;20215;-64
2023/04/05 12:40:23;;;;;;;8.00;4.80;;;;;;;;;;4931750;29;20219;-64
2023/04/05 12:42:49;;;;;;;9.43;5.15;;;;;;;;;;4932978;29;20215;-64
2023/04/05 12:45:14;;;;;;;5.82;4.60;;;;;;;;;;4932297;29;20223;-63
2023/04/05 12:47:47;;;;;;;9.05;5.18;;;;;;;;;;4941028;28;20214;-63
2023/04/05 12:50:14;;;;;;;8.13;5.00;;;;;;;;;;4935446;28;20428;-63
2023/04/05 12:52:55;;;;;;;8.25;5.40;;;;;;;;;;4932717;29;20215;-63
2023/04/05 12:55:20;;;;;;;8.80;4.72;;;;;;;;;;4931976;29;20526;-64
2023/04/05 12:57:52;;;;;;;8.25;4.97;;;;;;;;;;4932789;29;20621;-64
2023/04/05 13:00:20;;;;;;;7.28;4.72;;;;;;;;;;4931695;29;20310;-64
2023/04/05 13:02:47;;;;;;;8.38;4.60;;;;;;;;;;4932462;29;20211;-64
2023/04/05 13:05:12;;;;;;;8.38;4.82;;;;;;;;;;4932055;29;20246;-64
2023/04/05 13:07:38;;;;;;;9.20;5.13;;;;;;;;;;4932271;29;20576;-64
2023/04/05 13:10:03;;;;;;;6.93;5.25;;;;;;;;;;4931808;29;20706;-64
2023/04/05 13:12:28;;;;;;;7.40;5.07;;;;;;;;;;4932557;29;20223;-64
2023/04/05 13:14:54;;;;;;;10.65;5.22;;;;;;;;;;4932052;29;20591;-64
2023/04/05 13:17:19;;;;;;;6.97;5.03;;;;;;;;;;4931682;29;20436;-64
2023/04/05 13:19:44;;;;;;;5.88;4.28;;;;;;;;;;4932134;29;20302;-63
2023/04/05 13:22:10;;;;;;;6.22;4.35;;;;;;;;;;4931246;29;20215;-63
2023/04/05 13:24:35;;;;;;;7.88;4.85;;;;;;;;;;4932320;29;20218;-63
2023/04/05 13:27:00;;;;;;;9.18;4.35;;;;;;;;;;4932106;29;20581;-62
2023/04/05 13:29:26;;;;;;;6.72;4.70;;;;;;;;;;4931973;29;20238;-63
2023/04/05 13:31:51;;;;;;;7.63;5.43;;;;;;;;;;4951315;28;20321;-63
2023/04/05 13:34:16;;;;;;;6.70;4.30;;;;;;;;;;4942154;28;20214;-63
2023/04/05 13:36:41;;;;;;;7.32;4.43;;;;;;;;;;4941206;28;20294;-64
2023/04/05 13:39:07;;;;;;;6.75;4.70;;;;;;;;;;4941337;28;20218;-63
2023/04/05 13:41:32;;;;;;;7.85;4.60;;;;;;;;;;4940287;28;20231;-63
2023/04/05 13:43:57;;;;;;;7.05;4.90;;;;;;;;;;4947942;28;20250;-63
2023/04/05 13:46:23;;;;;;;8.20;4.80;;;;;;;;;;4950839;28;20678;-63
2023/04/05 13:48:48;;;;;;;9.45;5.03;;;;;;;;;;4937686;28;20273;-63
2023/04/05 13:51:13;;;;;;;10.43;4.55;;;;;;;;;;4951674;28;20639;-63
2023/04/05 13:53:38;;;;;;;7.32;5.00;;;;;;;;;;4953815;29;20481;-63
2023/04/05 13:56:05;;;;;;;9.70;5.00;;;;;;;;;;4953214;28;20309;-63
2023/04/05 13:58:30;;;;;;;7.75;4.78;;;;;;;;;;4939076;28;20689;-63
2023/04/05 14:00:55;;;;;;;8.43;4.82;;;;;;;;;;4941457;28;20215;-63
2023/04/05 14:03:21;;;;;;;7.75;4.78;;;;;;;;;;4941028;28;20222;-64
2023/04/05 14:05:46;;;;;;;7.70;5.10;;;;;;;;;;4945339;28;20249;-64
2023/04/05 14:08:11;;;;;;;9.27;4.85;;;;;;;;;;4948183;28;20232;-63
2023/04/05 14:10:36;;;;;;;8.13;4.63;;;;;;;;;;4948669;28;20218;-63
2023/04/05 14:13:02;;;;;;;7.00;4.80;;;;;;;;;;4939337;28;20218;-64
2023/04/05 14:15:28;;;;;;;7.60;4.63;;;;;;;;;;4940853;28;20647;-62
2023/04/05 14:17:54;;;;;;;8.15;4.55;;;;;;;;;;4927890;28;20314;-61
2023/04/05 14:20:19;;;;;;;6.03;4.15;;;;;;;;;;4924221;29;20231;-62
2023/04/05 14:22:45;;;;;;;8.70;4.70;;;;;;;;;;4922637;29;20322;-62
2023/04/05 14:25:10;;;;;;;11.95;4.30;;;;;;;;;;4922095;29;20214;-63
2023/04/05 14:27:40;;;;;;;6.80;4.30;;;;;;;;;;4925516;29;20601;-62
2023/04/05 14:30:05;;;;;;;6.88;4.03;;;;;;;;;;4929840;29;20590;-63
2023/04/05 14:32:31;;;;;;;6.13;4.18;;;;;;;;;;4949052;28;20723;-62